createdAt,value
2022-12-18T00:01:35.446Z,30.38
2022-12-18T00:04:15.256Z,29.40
2022-12-18T00:06:42.067Z,32.38
2022-12-18T00:09:10.432Z,32.60
2022-12-18T00:11:37.333Z,32.13
2022-12-18T00:14:04.191Z,29.92
2022-12-18T00:16:33.810Z,31.08
2022-12-18T00:19:01.658Z,30.95
2022-12-18T00:21:30.708Z,30.73
2022-12-18T00:23:59.100Z,31.05
2022-12-18T00:26:32.772Z,29.27
2022-12-18T00:29:07.217Z,31.55
2022-12-18T00:31:34.589Z,30.00
2022-12-18T00:34:02.246Z,31.98
2022-12-18T00:36:33.106Z,29.73
2022-12-18T00:39:02.658Z,30.10
2022-12-18T00:41:48.419Z,29.20
2022-12-18T00:44:18.275Z,28.85
2022-12-18T00:46:48.019Z,29.92
2022-12-18T00:49:18.612Z,29.00
2022-12-18T00:51:46.618Z,27.33
2022-12-18T00:54:14.062Z,29.52
2022-12-18T00:56:48.236Z,30.65
2022-12-18T00:59:19.583Z,29.67
2022-12-18T01:01:47.905Z,29.88
2022-12-18T01:04:15.303Z,30.25
2022-12-18T01:06:45.690Z,28.33
2022-12-18T01:09:12.742Z,28.77
2022-12-18T01:11:39.573Z,28.35
2022-12-18T01:14:06.447Z,27.92
2022-12-18T01:16:33.319Z,27.17
2022-12-18T01:19:00.149Z,30.35
2022-12-18T01:21:28.001Z,28.38
2022-12-18T01:23:57.145Z,31.27
2022-12-18T01:26:26.183Z,30.92
2022-12-18T01:28:55.529Z,29.92
2022-12-18T01:31:31.042Z,29.50
2022-12-18T01:34:00.991Z,30.30
2022-12-18T01:36:32.193Z,28.95
2022-12-18T01:39:07.263Z,29.85
2022-12-18T01:41:54.448Z,30.55
2022-12-18T01:45:06.337Z,30.02
2022-12-18T01:47:44.635Z,30.73
2022-12-18T01:50:21.438Z,31.02
2022-12-18T01:52:53.885Z,31.50
2022-12-18T01:55:26.014Z,32.53
2022-12-18T01:57:58.464Z,31.10
2022-12-18T02:00:27.198Z,32.00
2022-12-18T02:02:56.527Z,31.73
2022-12-18T02:05:47.425Z,31.25
2022-12-18T02:08:34.697Z,30.80
2022-12-18T02:11:40.692Z,29.85
2022-12-18T02:14:46.764Z,28.92
2022-12-18T02:17:33.912Z,27.70
2022-12-18T02:20:32.945Z,29.33
2022-12-18T02:23:20.397Z,28.38
2022-12-18T02:26:20.705Z,28.55
2022-12-18T02:29:04.829Z,28.10
2022-12-18T02:31:41.202Z,27.92
2022-12-18T02:34:11.131Z,28.92
2022-12-18T02:36:43.228Z,29.02
2022-12-18T02:39:14.209Z,27.60
2022-12-18T02:41:49.790Z,27.98
2022-12-18T02:44:16.788Z,27.17
2022-12-18T02:46:52.311Z,27.30
2022-12-18T02:49:44.481Z,27.05
2022-12-18T02:53:18.220Z,28.33
2022-12-18T02:56:14.845Z,27.75
2022-12-18T02:59:11.446Z,27.75
2022-12-18T03:02:27.311Z,27.52
2022-12-18T03:05:09.593Z,27.27
2022-12-18T03:08:00.402Z,27.48
2022-12-18T03:10:37.589Z,27.50
2022-12-18T03:13:24.233Z,28.00
2022-12-18T03:15:57.997Z,26.70
2022-12-18T03:18:36.838Z,27.30
2022-12-18T03:21:07.539Z,27.08
2022-12-18T03:23:46.828Z,28.05
2022-12-18T03:26:20.577Z,26.00
2022-12-18T03:29:11.121Z,29.90
2022-12-18T03:31:43.599Z,29.35
2022-12-18T03:34:18.291Z,25.95
2022-12-18T03:36:47.350Z,28.45
2022-12-18T03:39:15.618Z,27.30
2022-12-18T03:41:53.320Z,28.45
2022-12-18T03:45:01.745Z,27.85
2022-12-18T03:47:30.457Z,27.38
2022-12-18T03:50:23.002Z,27.83
2022-12-18T03:53:09.999Z,27.48
2022-12-18T03:55:38.539Z,26.55
2022-12-18T03:58:10.798Z,27.02
2022-12-18T04:00:56.919Z,26.20
2022-12-18T04:03:26.790Z,26.35
2022-12-18T04:05:57.284Z,27.60
2022-12-18T04:08:26.575Z,25.65
2022-12-18T04:11:02.804Z,25.85
2022-12-18T04:13:34.979Z,27.35
2022-12-18T04:16:03.847Z,26.92
2022-12-18T04:18:31.538Z,25.55
2022-12-18T04:20:59.999Z,24.83
2022-12-18T04:23:27.060Z,24.33
2022-12-18T04:25:57.440Z,25.00
2022-12-18T04:28:39.151Z,24.73
2022-12-18T04:31:06.244Z,23.35
2022-12-18T04:33:33.178Z,22.58
2022-12-18T04:36:00.337Z,23.38
2022-12-18T04:38:28.111Z,22.13
2022-12-18T04:41:03.053Z,23.83
2022-12-18T04:43:30.254Z,21.50
2022-12-18T04:46:08.818Z,21.70
2022-12-18T04:48:36.566Z,21.48
2022-12-18T04:51:04.597Z,21.98
2022-12-18T04:53:31.441Z,22.20
2022-12-18T04:56:24.593Z,21.02
2022-12-18T04:58:51.460Z,21.38
2022-12-18T05:01:19.620Z,21.35
2022-12-18T05:03:46.664Z,20.42
2022-12-18T05:06:13.524Z,21.05
2022-12-18T05:08:40.458Z,20.45
2022-12-18T05:11:13.240Z,21.20
2022-12-18T05:13:40.388Z,20.23
2022-12-18T05:16:08.341Z,20.42
2022-12-18T05:18:36.256Z,20.35
2022-12-18T05:21:04.009Z,20.30
2022-12-18T05:23:30.911Z,20.77
2022-12-18T05:26:04.015Z,19.75
2022-12-18T05:28:34.282Z,18.60
2022-12-18T05:31:04.493Z,18.58
2022-12-18T05:33:34.928Z,19.58
2022-12-18T05:36:05.058Z,17.77
2022-12-18T05:38:34.050Z,18.65
2022-12-18T05:41:01.061Z,18.05
2022-12-18T05:43:28.128Z,18.10
2022-12-18T05:45:55.580Z,18.13
2022-12-18T05:48:23.118Z,16.27
2022-12-18T05:50:51.185Z,17.15
2022-12-18T05:53:20.940Z,16.83
2022-12-18T05:55:48.908Z,17.08
2022-12-18T05:58:16.461Z,16.02
2022-12-18T06:00:47.030Z,17.00
2022-12-18T06:03:14.585Z,16.05
2022-12-18T06:05:46.223Z,16.70
2022-12-18T06:08:14.559Z,15.35
2022-12-18T06:10:42.696Z,16.48
2022-12-18T06:13:10.033Z,16.05
2022-12-18T06:15:39.902Z,15.45
2022-12-18T06:18:06.797Z,15.05
2022-12-18T06:20:34.167Z,16.17
2022-12-18T06:23:01.631Z,15.35
2022-12-18T06:25:28.472Z,15.02
2022-12-18T06:27:55.406Z,14.50
2022-12-18T06:30:22.389Z,15.45
2022-12-18T06:32:56.346Z,14.38
2022-12-18T06:35:24.216Z,15.20
2022-12-18T06:37:51.083Z,14.40
2022-12-18T06:40:18.217Z,15.73
2022-12-18T06:42:45.089Z,14.18
2022-12-18T06:45:12.491Z,14.90
2022-12-18T06:47:42.206Z,14.00
2022-12-18T06:50:09.461Z,14.85
2022-12-18T06:52:36.385Z,14.82
2022-12-18T06:55:03.926Z,14.18
2022-12-18T06:57:30.709Z,14.70
2022-12-18T06:59:57.606Z,13.82
2022-12-18T07:02:24.606Z,14.30
2022-12-18T07:04:51.602Z,14.10
2022-12-18T07:07:18.911Z,14.77
2022-12-18T07:09:45.659Z,14.98
2022-12-18T07:12:12.593Z,14.93
2022-12-18T07:14:39.452Z,13.95
2022-12-18T07:17:06.568Z,15.10
2022-12-18T07:19:33.930Z,13.63
2022-12-18T07:22:01.382Z,14.25
2022-12-18T07:24:28.450Z,14.40
2022-12-18T07:26:55.336Z,14.57
2022-12-18T07:29:22.321Z,14.05
2022-12-18T07:31:50.073Z,14.25
2022-12-18T07:34:17.412Z,14.35
2022-12-18T07:36:44.630Z,14.48
2022-12-18T07:39:14.388Z,13.65
2022-12-18T07:41:47.492Z,14.02
2022-12-18T07:44:16.459Z,15.70
2022-12-18T07:46:43.249Z,15.93
2022-12-18T07:49:09.983Z,15.05
2022-12-18T07:51:36.737Z,15.57
2022-12-18T07:54:03.687Z,14.75
2022-12-18T07:56:31.576Z,15.18
2022-12-18T07:59:00.002Z,14.63
2022-12-18T08:01:29.983Z,15.20
2022-12-18T08:03:58.549Z,19.95
2022-12-18T08:06:25.853Z,18.33
2022-12-18T08:08:54.768Z,17.15
2022-12-18T08:11:22.743Z,15.95
2022-12-18T08:13:49.649Z,15.25
2022-12-18T08:16:16.994Z,15.32
2022-12-18T08:18:43.907Z,14.60
2022-12-18T08:21:24.355Z,14.32
2022-12-18T08:23:53.331Z,15.57
2022-12-18T08:26:21.321Z,15.25
2022-12-18T08:28:50.427Z,13.95
2022-12-18T08:31:19.400Z,14.57
2022-12-18T08:33:48.753Z,14.40
2022-12-18T08:36:15.469Z,15.88
2022-12-18T08:38:42.331Z,13.80
2022-12-18T08:41:12.975Z,15.35
2022-12-18T08:43:59.441Z,15.20
2022-12-18T08:46:32.212Z,15.05
2022-12-18T08:48:59.195Z,14.93
2022-12-18T08:51:26.012Z,14.85
2022-12-18T08:53:52.821Z,14.68
2022-12-18T08:56:20.077Z,14.15
2022-12-18T08:58:46.953Z,14.98
2022-12-18T09:01:14.721Z,14.40
2022-12-18T09:03:42.623Z,14.57
2022-12-18T09:06:10.247Z,14.77
2022-12-18T09:08:37.909Z,14.57
2022-12-18T09:11:05.250Z,13.25
2022-12-18T09:13:32.032Z,14.95
2022-12-18T09:15:59.858Z,13.40
2022-12-18T09:18:26.676Z,15.30
2022-12-18T09:20:53.885Z,13.40
2022-12-18T09:23:22.313Z,14.13
2022-12-18T09:25:49.695Z,14.02
2022-12-18T09:28:20.204Z,13.20
2022-12-18T09:30:50.204Z,13.30
2022-12-18T09:33:18.104Z,14.15
2022-12-18T09:35:46.998Z,14.02
2022-12-18T09:38:19.486Z,14.38
2022-12-18T09:40:52.732Z,14.07
2022-12-18T09:43:28.076Z,14.00
2022-12-18T09:46:11.382Z,14.20
2022-12-18T09:48:47.330Z,13.98
2022-12-18T09:51:21.135Z,13.55
2022-12-18T09:53:57.791Z,13.82
2022-12-18T09:56:29.769Z,15.07
2022-12-18T09:59:03.026Z,13.80
2022-12-18T10:01:41.456Z,13.80
2022-12-18T10:04:11.475Z,14.30
2022-12-18T10:07:09.129Z,12.77
2022-12-18T10:09:51.802Z,13.25
2022-12-18T10:12:31.334Z,12.68
2022-12-18T10:15:33.975Z,13.52
2022-12-18T10:18:25.824Z,13.80
2022-12-18T10:21:12.727Z,14.15
2022-12-18T10:24:16.908Z,13.65
2022-12-18T10:26:45.122Z,13.52
2022-12-18T10:29:17.237Z,12.65
2022-12-18T10:31:44.311Z,14.63
2022-12-18T10:34:15.165Z,14.43
2022-12-18T10:36:43.458Z,13.02
2022-12-18T10:39:24.075Z,14.70
2022-12-18T10:41:50.915Z,13.73
2022-12-18T10:44:27.445Z,14.40
2022-12-18T10:47:12.138Z,12.18
2022-12-18T10:49:50.569Z,13.27
2022-12-18T10:52:25.533Z,12.98
2022-12-18T10:55:05.739Z,13.38
2022-12-18T10:57:39.588Z,13.35
2022-12-18T11:00:31.301Z,13.57
2022-12-18T11:02:59.092Z,13.10
2022-12-18T11:05:31.457Z,14.35
2022-12-18T11:08:00.632Z,13.23
2022-12-18T11:10:37.069Z,12.85
2022-12-18T11:13:25.744Z,13.50
2022-12-18T11:15:53.356Z,13.25
2022-12-18T11:18:34.521Z,12.80
2022-12-18T11:21:11.051Z,12.48
2022-12-18T11:23:50.658Z,13.20
2022-12-18T11:26:18.604Z,12.50
2022-12-18T11:28:51.424Z,12.43
2022-12-18T11:31:26.538Z,13.82
2022-12-18T11:34:31.178Z,12.98
2022-12-18T11:37:01.933Z,12.52
2022-12-18T11:39:39.541Z,12.70
2022-12-18T11:42:38.623Z,12.52
2022-12-18T11:45:14.130Z,13.45
2022-12-18T11:48:34.574Z,12.02
2022-12-18T11:51:06.507Z,12.75
2022-12-18T11:53:33.425Z,12.32
2022-12-18T11:56:28.070Z,12.88
2022-12-18T11:59:32.287Z,12.88
2022-12-18T12:02:46.581Z,11.82
2022-12-18T12:05:28.702Z,12.80
2022-12-18T12:08:39.273Z,13.07
2022-12-18T12:11:26.430Z,12.32
2022-12-18T12:14:26.437Z,12.27
2022-12-18T12:17:25.367Z,12.10
2022-12-18T12:20:21.209Z,13.07
2022-12-18T12:23:34.907Z,12.05
2022-12-18T12:26:15.874Z,13.25
2022-12-18T12:29:24.450Z,12.65
2022-12-18T12:32:35.230Z,11.93
2022-12-18T12:35:47.574Z,11.95
2022-12-18T12:38:23.944Z,12.07
2022-12-18T12:41:05.059Z,11.85
2022-12-18T12:43:50.870Z,12.63
2022-12-18T12:46:22.757Z,12.75
2022-12-18T12:49:03.019Z,14.15
2022-12-18T12:51:37.433Z,12.70
2022-12-18T12:54:16.620Z,12.20
2022-12-18T12:57:01.247Z,12.07
2022-12-18T12:59:41.326Z,13.43
2022-12-18T13:02:24.011Z,13.07
2022-12-18T13:05:15.756Z,13.38
2022-12-18T13:07:58.562Z,12.60
2022-12-18T13:10:31.499Z,13.00
2022-12-18T13:13:10.755Z,12.85
2022-12-18T13:15:48.150Z,12.55
2022-12-18T13:18:20.196Z,13.60
2022-12-18T13:20:59.891Z,13.98
2022-12-18T13:23:40.883Z,13.57
2022-12-18T13:26:08.957Z,13.10
2022-12-18T13:28:47.877Z,13.07
2022-12-18T13:31:39.419Z,12.25
2022-12-18T13:34:28.075Z,13.27
2022-12-18T13:37:13.092Z,12.82
2022-12-18T13:39:39.959Z,12.88
2022-12-18T13:42:06.946Z,14.00
2022-12-18T13:44:41.570Z,14.18
2022-12-18T13:47:35.461Z,13.27
2022-12-18T13:50:20.870Z,13.30
2022-12-18T13:52:53.611Z,12.98
2022-12-18T13:55:23.351Z,13.63
2022-12-18T13:57:50.167Z,13.30
2022-12-18T14:00:30.538Z,13.13
2022-12-18T14:02:59.779Z,12.95
2022-12-18T14:05:28.154Z,12.27
2022-12-18T14:08:00.341Z,12.63
2022-12-18T14:10:47.990Z,13.70
2022-12-18T14:13:30.245Z,13.30
2022-12-18T14:15:59.242Z,13.45
2022-12-18T14:18:45.392Z,13.45
2022-12-18T14:21:23.780Z,13.77
2022-12-18T14:24:23.025Z,12.52
2022-12-18T14:26:53.860Z,13.77
2022-12-18T14:29:31.809Z,13.25
2022-12-18T14:32:17.569Z,14.57
2022-12-18T14:34:54.948Z,13.48
2022-12-18T14:37:26.254Z,13.30
2022-12-18T14:39:55.971Z,13.57
2022-12-18T14:42:22.846Z,13.48
2022-12-18T14:45:12.512Z,14.05
2022-12-18T14:47:36.646Z,13.18
2022-12-18T14:50:03.847Z,15.27
2022-12-18T14:52:33.097Z,14.80
2022-12-18T14:54:59.882Z,12.63
2022-12-18T14:57:38.724Z,14.32
2022-12-18T15:00:21.727Z,13.75
2022-12-18T15:02:54.385Z,14.18
2022-12-18T15:05:28.873Z,13.90
2022-12-18T15:08:00.618Z,14.68
2022-12-18T15:10:35.377Z,15.25
2022-12-18T15:13:03.396Z,14.82
2022-12-18T15:15:40.232Z,14.43
2022-12-18T15:18:21.063Z,16.08
2022-12-18T15:20:52.605Z,15.93
2022-12-18T15:23:46.177Z,15.55
2022-12-18T15:26:17.041Z,15.15
2022-12-18T15:28:52.953Z,14.27
2022-12-18T15:31:35.949Z,14.75
2022-12-18T15:34:14.596Z,15.93
2022-12-18T15:36:41.472Z,15.10
2022-12-18T15:39:12.942Z,15.88
2022-12-18T15:41:40.135Z,15.05
2022-12-18T15:44:26.545Z,15.55
2022-12-18T15:46:53.556Z,16.38
2022-12-18T15:49:23.531Z,15.52
2022-12-18T15:51:55.769Z,15.93
2022-12-18T15:54:42.998Z,14.65
2022-12-18T15:57:24.281Z,14.95
2022-12-18T15:59:58.872Z,15.48
2022-12-18T16:02:26.558Z,15.25
2022-12-18T16:04:54.894Z,15.88
2022-12-18T16:07:25.085Z,16.60
2022-12-18T16:09:53.228Z,16.00
2022-12-18T16:12:25.805Z,16.40
2022-12-18T16:14:52.766Z,16.05
2022-12-18T16:17:21.310Z,15.40
2022-12-18T16:19:48.395Z,16.10
2022-12-18T16:22:25.897Z,15.65
2022-12-18T16:24:54.877Z,16.70
2022-12-18T16:27:23.429Z,16.98
2022-12-18T16:29:51.193Z,15.68
2022-12-18T16:32:21.244Z,16.13
2022-12-18T16:34:48.456Z,16.33
2022-12-18T16:37:17.094Z,16.50
2022-12-18T16:39:45.080Z,15.52
2022-12-18T16:42:20.006Z,16.38
2022-12-18T16:44:49.594Z,16.58
2022-12-18T16:47:17.872Z,16.05
2022-12-18T16:49:45.922Z,16.40
2022-12-18T16:52:13.880Z,17.25
2022-12-18T16:54:40.874Z,17.40
2022-12-18T16:57:10.312Z,16.48
2022-12-18T16:59:37.368Z,15.95
2022-12-18T17:02:24.004Z,16.30
2022-12-18T17:04:54.998Z,16.45
2022-12-18T17:07:21.991Z,18.08
2022-12-18T17:09:50.358Z,16.40
2022-12-18T17:12:18.095Z,17.15
2022-12-18T17:14:45.085Z,16.67
2022-12-18T17:17:27.178Z,17.92
2022-12-18T17:19:54.117Z,17.50
2022-12-18T17:22:23.017Z,17.13
2022-12-18T17:24:49.880Z,17.05
2022-12-18T17:27:16.995Z,16.83
2022-12-18T17:29:47.834Z,17.98
2022-12-18T17:32:16.815Z,17.60
2022-12-18T17:34:43.741Z,16.73
2022-12-18T17:37:10.752Z,18.33
2022-12-18T17:39:38.270Z,17.65
2022-12-18T17:42:05.505Z,19.05
2022-12-18T17:44:34.192Z,17.42
2022-12-18T17:47:01.334Z,19.08
2022-12-18T17:49:28.571Z,19.60
2022-12-18T17:51:55.406Z,18.98
2022-12-18T17:54:22.276Z,19.02
2022-12-18T17:56:49.086Z,17.42
2022-12-18T17:59:16.643Z,16.77
2022-12-18T18:01:45.175Z,19.20
2022-12-18T18:04:15.490Z,17.90
2022-12-18T18:06:42.547Z,18.60
2022-12-18T18:09:16.817Z,18.42
2022-12-18T18:12:03.534Z,17.83
2022-12-18T18:14:30.850Z,18.38
2022-12-18T18:16:58.206Z,19.42
2022-12-18T18:19:31.008Z,18.25
2022-12-18T18:21:57.935Z,19.30
2022-12-18T18:24:25.737Z,19.73
2022-12-18T18:26:55.671Z,18.85
2022-12-18T18:29:26.869Z,17.88
2022-12-18T18:31:54.247Z,19.30
2022-12-18T18:34:27.698Z,19.52
2022-12-18T18:36:54.964Z,18.45
2022-12-18T18:39:24.978Z,17.75
2022-12-18T18:41:52.687Z,18.27
2022-12-18T18:44:22.819Z,18.58
2022-12-18T18:46:55.704Z,17.13
2022-12-18T18:49:27.425Z,16.92
2022-12-18T18:51:57.202Z,19.83
2022-12-18T18:54:25.757Z,17.90
2022-12-18T18:59:39.744Z,19.55
2022-12-18T19:02:09.893Z,18.42
2022-12-18T19:04:38.898Z,17.73
2022-12-18T19:07:15.081Z,18.63
2022-12-18T19:09:56.870Z,18.55
2022-12-18T19:12:42.404Z,18.65
2022-12-18T19:15:09.723Z,18.75
2022-12-18T19:17:38.278Z,17.55
2022-12-18T19:20:07.250Z,18.33
2022-12-18T19:22:35.270Z,18.35
2022-12-18T19:25:02.072Z,18.58
2022-12-18T19:27:28.854Z,18.27
2022-12-18T19:29:55.636Z,18.83
2022-12-18T19:32:22.672Z,18.35
2022-12-18T19:34:50.621Z,17.83
2022-12-18T19:37:17.707Z,18.38
2022-12-18T19:39:44.582Z,18.52
2022-12-18T19:42:11.380Z,18.67
2022-12-18T19:44:38.149Z,19.13
2022-12-18T19:47:05.003Z,18.48
2022-12-18T19:49:32.668Z,19.73
2022-12-18T19:51:59.569Z,19.67
2022-12-18T19:54:26.366Z,19.75
2022-12-18T19:56:53.514Z,20.05
2022-12-18T19:59:20.496Z,20.48
2022-12-18T20:01:47.796Z,20.67
2022-12-18T20:04:14.935Z,20.55
2022-12-18T20:06:54.113Z,20.17
2022-12-18T20:09:21.937Z,20.33
2022-12-18T20:11:49.832Z,19.17
2022-12-18T20:14:23.265Z,20.85
2022-12-18T20:16:52.254Z,19.13
2022-12-18T20:19:19.871Z,20.70
2022-12-18T20:21:47.623Z,20.05
2022-12-18T20:24:14.498Z,19.80
2022-12-18T20:26:41.399Z,19.52
2022-12-18T20:29:08.405Z,20.83
2022-12-18T20:31:35.249Z,21.80
2022-12-18T20:34:03.649Z,21.23
2022-12-18T20:36:33.030Z,21.05
2022-12-18T20:39:05.425Z,21.67
2022-12-18T20:41:38.350Z,19.88
2022-12-18T20:44:21.991Z,20.45
2022-12-18T20:46:57.002Z,20.85
2022-12-18T20:49:26.259Z,20.65
2022-12-18T20:51:56.359Z,20.40
2022-12-18T20:54:26.647Z,21.63
2022-12-18T20:56:55.057Z,21.73
2022-12-18T20:59:23.333Z,21.88
2022-12-18T21:01:51.976Z,22.27
2022-12-18T21:04:23.369Z,20.98
2022-12-18T21:07:00.501Z,21.50
2022-12-18T21:09:37.135Z,22.10
2022-12-18T21:12:29.327Z,20.60
2022-12-18T21:15:01.039Z,20.50
2022-12-18T21:17:28.723Z,21.85
2022-12-18T21:19:56.831Z,21.42
2022-12-18T21:22:24.518Z,21.60
2022-12-18T21:24:51.711Z,21.45
2022-12-18T21:27:19.882Z,22.02
2022-12-18T21:29:47.199Z,22.35
2022-12-18T21:32:14.514Z,22.73
2022-12-18T21:34:47.486Z,22.15
2022-12-18T21:37:15.186Z,22.40
2022-12-18T21:39:41.970Z,23.20
2022-12-18T21:42:30.952Z,21.33
2022-12-18T21:44:57.901Z,22.85
2022-12-18T21:47:24.736Z,22.98
2022-12-18T21:49:52.770Z,21.83
2022-12-18T21:52:30.920Z,23.67
2022-12-18T21:55:06.609Z,23.55
2022-12-18T21:57:36.918Z,22.38
2022-12-18T22:00:06.166Z,21.88
2022-12-18T22:02:39.286Z,22.20
2022-12-18T22:05:06.849Z,22.83
2022-12-18T22:07:33.963Z,21.67
2022-12-18T22:10:02.046Z,21.73
2022-12-18T22:12:35.200Z,24.70
2022-12-18T22:15:04.859Z,23.77
2022-12-18T22:17:31.862Z,23.10
2022-12-18T22:19:58.637Z,22.77
2022-12-18T22:22:25.518Z,22.58
2022-12-18T22:24:52.350Z,22.75
2022-12-18T22:27:19.150Z,24.02
2022-12-18T22:30:04.007Z,23.23
2022-12-18T22:32:35.453Z,20.73
2022-12-18T22:35:09.432Z,22.92
2022-12-18T22:37:39.831Z,22.85
2022-12-18T22:40:07.611Z,24.33
2022-12-18T22:42:35.502Z,24.38
2022-12-18T22:45:02.315Z,22.95
2022-12-18T22:47:30.459Z,23.30
2022-12-18T22:49:58.343Z,22.52
2022-12-18T22:52:25.743Z,23.90
2022-12-18T22:54:54.268Z,22.58
2022-12-18T22:57:24.622Z,23.35
2022-12-18T22:59:51.933Z,22.95
2022-12-18T23:02:19.126Z,23.25
2022-12-18T23:04:47.460Z,23.30
2022-12-18T23:07:15.116Z,22.90
2022-12-18T23:09:42.138Z,23.08
2022-12-18T23:12:18.926Z,23.33
2022-12-18T23:14:47.145Z,24.52
2022-12-18T23:17:14.047Z,22.63
2022-12-18T23:19:47.181Z,23.63
2022-12-18T23:22:15.565Z,22.17
2022-12-18T23:24:42.582Z,24.90
2022-12-18T23:27:11.500Z,23.95
2022-12-18T23:29:39.119Z,23.17
2022-12-18T23:32:06.134Z,23.23
2022-12-18T23:34:32.881Z,24.38
2022-12-18T23:37:00.985Z,22.80
2022-12-18T23:39:30.117Z,23.83
2022-12-18T23:42:00.745Z,23.30
2022-12-18T23:44:28.095Z,23.52
2022-12-18T23:46:55.311Z,23.63
2022-12-18T23:49:23.124Z,24.60
2022-12-18T23:51:50.270Z,24.10
2022-12-18T23:54:17.279Z,22.73
2022-12-18T23:56:49.131Z,22.55
2022-12-18T23:59:15.946Z,23.23
